sensor_id;sensor_type;location;lat;lon;timestamp;P1;durP1;ratioP1;P2;durP2;ratioP2
55076;SDS011;40971;44.702;11.030;2022-07-29T00:01:24;16.10;;;6.47;;
55076;SDS011;40971;44.702;11.030;2022-07-29T00:03:49;14.88;;;7.90;;
55076;SDS011;40971;44.702;11.030;2022-07-29T00:06:15;15.57;;;6.65;;
55076;SDS011;40971;44.702;11.030;2022-07-29T00:08:41;13.25;;;7.10;;
55076;SDS011;40971;44.702;11.030;2022-07-29T00:11:06;12.90;;;6.82;;
55076;SDS011;40971;44.702;11.030;2022-07-29T00:13:32;13.85;;;6.43;;
55076;SDS011;40971;44.702;11.030;2022-07-29T00:15:58;14.25;;;6.60;;
55076;SDS011;40971;44.702;11.030;2022-07-29T00:18:24;18.58;;;6.97;;
55076;SDS011;40971;44.702;11.030;2022-07-29T00:20:50;15.05;;;6.93;;
55076;SDS011;40971;44.702;11.030;2022-07-29T00:23:15;14.75;;;7.13;;
55076;SDS011;40971;44.702;11.030;2022-07-29T00:25:40;14.60;;;7.45;;
55076;SDS011;40971;44.702;11.030;2022-07-29T00:28:06;20.00;;;7.63;;
55076;SDS011;40971;44.702;11.030;2022-07-29T00:30:31;19.50;;;8.20;;
55076;SDS011;40971;44.702;11.030;2022-07-29T00:32:57;12.68;;;7.75;;
55076;SDS011;40971;44.702;11.030;2022-07-29T00:35:22;19.48;;;7.32;;
55076;SDS011;40971;44.702;11.030;2022-07-29T00:38:08;15.75;;;6.63;;
55076;SDS011;40971;44.702;11.030;2022-07-29T00:40:33;15.85;;;7.22;;
55076;SDS011;40971;44.702;11.030;2022-07-29T00:42:59;15.00;;;7.55;;
55076;SDS011;40971;44.702;11.030;2022-07-29T00:45:24;14.00;;;7.40;;
55076;SDS011;40971;44.702;11.030;2022-07-29T00:47:50;13.18;;;6.30;;
55076;SDS011;40971;44.702;11.030;2022-07-29T00:50:16;15.88;;;6.80;;
55076;SDS011;40971;44.702;11.030;2022-07-29T00:52:42;15.30;;;5.90;;
55076;SDS011;40971;44.702;11.030;2022-07-29T00:55:09;11.05;;;4.47;;
55076;SDS011;40971;44.702;11.030;2022-07-29T00:57:36;9.32;;;4.72;;
55076;SDS011;40971;44.702;11.030;2022-07-29T01:00:03;11.57;;;5.25;;
55076;SDS011;40971;44.702;11.030;2022-07-29T01:02:30;11.05;;;4.18;;
55076;SDS011;40971;44.702;11.030;2022-07-29T01:04:55;11.05;;;4.40;;
55076;SDS011;40971;44.702;11.030;2022-07-29T01:07:22;10.77;;;3.08;;
55076;SDS011;40971;44.702;11.030;2022-07-29T01:09:49;10.63;;;4.00;;
55076;SDS011;40971;44.702;11.030;2022-07-29T01:12:36;17.80;;;4.72;;
55076;SDS011;40971;44.702;11.030;2022-07-29T01:15:03;9.80;;;4.03;;
55076;SDS011;40971;44.702;11.030;2022-07-29T01:17:44;12.55;;;4.88;;
55076;SDS011;40971;44.702;11.030;2022-07-29T01:30:36;12.00;;;5.45;;
55076;SDS011;40971;44.702;11.030;2022-07-29T01:33:14;16.95;;;5.05;;
55076;SDS011;40971;44.702;11.030;2022-07-29T01:36:05;10.30;;;5.75;;
55076;SDS011;40971;44.702;11.030;2022-07-29T01:38:35;11.80;;;5.18;;
55076;SDS011;40971;44.702;11.030;2022-07-29T01:41:22;14.73;;;4.93;;
55076;SDS011;40971;44.702;11.030;2022-07-29T01:43:49;16.48;;;5.75;;
55076;SDS011;40971;44.702;11.030;2022-07-29T01:46:21;12.48;;;5.25;;
55076;SDS011;40971;44.702;11.030;2022-07-29T01:48:57;13.63;;;5.40;;
55076;SDS011;40971;44.702;11.030;2022-07-29T01:54:16;13.38;;;5.80;;
55076;SDS011;40971;44.702;11.030;2022-07-29T01:56:48;14.55;;;5.88;;
55076;SDS011;40971;44.702;11.030;2022-07-29T01:59:16;12.90;;;6.05;;
55076;SDS011;40971;44.702;11.030;2022-07-29T02:01:43;11.05;;;5.40;;
55076;SDS011;40971;44.702;11.030;2022-07-29T02:04:12;13.20;;;5.53;;
55076;SDS011;40971;44.702;11.030;2022-07-29T02:06:41;16.65;;;5.47;;
55076;SDS011;40971;44.702;11.030;2022-07-29T02:09:09;17.95;;;6.40;;
55076;SDS011;40971;44.702;11.030;2022-07-29T02:11:37;10.40;;;5.45;;
55076;SDS011;40971;44.702;11.030;2022-07-29T02:14:03;10.45;;;5.90;;
55076;SDS011;40971;44.702;11.030;2022-07-29T02:16:31;11.45;;;6.10;;
55076;SDS011;40971;44.702;11.030;2022-07-29T02:18:58;14.55;;;6.38;;
55076;SDS011;40971;44.702;11.030;2022-07-29T02:21:26;14.07;;;6.28;;
55076;SDS011;40971;44.702;11.030;2022-07-29T02:23:54;12.60;;;6.70;;
55076;SDS011;40971;44.702;11.030;2022-07-29T02:26:24;13.93;;;6.15;;
55076;SDS011;40971;44.702;11.030;2022-07-29T02:28:53;11.50;;;6.82;;
55076;SDS011;40971;44.702;11.030;2022-07-29T02:31:21;12.85;;;6.72;;
55076;SDS011;40971;44.702;11.030;2022-07-29T02:33:50;13.05;;;6.82;;
55076;SDS011;40971;44.702;11.030;2022-07-29T02:36:17;16.45;;;7.40;;
55076;SDS011;40971;44.702;11.030;2022-07-29T02:38:47;17.55;;;6.18;;
55076;SDS011;40971;44.702;11.030;2022-07-29T02:41:16;14.95;;;6.10;;
55076;SDS011;40971;44.702;11.030;2022-07-29T02:43:45;11.18;;;5.60;;
55076;SDS011;40971;44.702;11.030;2022-07-29T02:46:18;12.27;;;6.55;;
55076;SDS011;40971;44.702;11.030;2022-07-29T02:48:51;13.88;;;6.20;;
55076;SDS011;40971;44.702;11.030;2022-07-29T02:51:25;21.23;;;6.50;;
55076;SDS011;40971;44.702;11.030;2022-07-29T02:53:57;18.27;;;7.05;;
55076;SDS011;40971;44.702;11.030;2022-07-29T02:56:28;15.85;;;6.45;;
55076;SDS011;40971;44.702;11.030;2022-07-29T02:59:01;17.73;;;6.88;;
55076;SDS011;40971;44.702;11.030;2022-07-29T03:01:31;15.27;;;6.65;;
55076;SDS011;40971;44.702;11.030;2022-07-29T03:04:00;10.98;;;5.85;;
55076;SDS011;40971;44.702;11.030;2022-07-29T03:06:28;15.48;;;6.72;;
55076;SDS011;40971;44.702;11.030;2022-07-29T03:08:54;14.32;;;6.22;;
55076;SDS011;40971;44.702;11.030;2022-07-29T03:11:21;17.02;;;6.32;;
55076;SDS011;40971;44.702;11.030;2022-07-29T03:13:47;14.15;;;5.57;;
55076;SDS011;40971;44.702;11.030;2022-07-29T03:16:13;14.77;;;6.57;;
55076;SDS011;40971;44.702;11.030;2022-07-29T03:18:40;11.15;;;5.90;;
55076;SDS011;40971;44.702;11.030;2022-07-29T03:21:06;13.35;;;7.10;;
55076;SDS011;40971;44.702;11.030;2022-07-29T03:23:33;23.55;;;6.82;;
55076;SDS011;40971;44.702;11.030;2022-07-29T03:25:58;12.38;;;6.30;;
55076;SDS011;40971;44.702;11.030;2022-07-29T03:28:24;16.60;;;7.20;;
55076;SDS011;40971;44.702;11.030;2022-07-29T03:30:50;17.55;;;7.50;;
55076;SDS011;40971;44.702;11.030;2022-07-29T03:33:17;16.40;;;7.18;;
55076;SDS011;40971;44.702;11.030;2022-07-29T03:35:46;16.52;;;6.80;;
55076;SDS011;40971;44.702;11.030;2022-07-29T03:38:11;16.13;;;5.82;;
55076;SDS011;40971;44.702;11.030;2022-07-29T03:43:26;15.93;;;7.05;;
55076;SDS011;40971;44.702;11.030;2022-07-29T03:45:56;13.10;;;6.60;;
55076;SDS011;40971;44.702;11.030;2022-07-29T03:48:23;16.58;;;7.55;;
55076;SDS011;40971;44.702;11.030;2022-07-29T03:50:51;20.08;;;8.43;;
55076;SDS011;40971;44.702;11.030;2022-07-29T03:53:17;29.73;;;7.93;;
55076;SDS011;40971;44.702;11.030;2022-07-29T03:55:44;13.55;;;8.13;;
55076;SDS011;40971;44.702;11.030;2022-07-29T03:58:12;15.52;;;8.23;;
55076;SDS011;40971;44.702;11.030;2022-07-29T04:00:39;15.63;;;8.00;;
55076;SDS011;40971;44.702;11.030;2022-07-29T04:03:05;14.55;;;8.50;;
55076;SDS011;40971;44.702;11.030;2022-07-29T04:05:32;26.80;;;9.68;;
55076;SDS011;40971;44.702;11.030;2022-07-29T04:07:57;24.15;;;9.90;;
55076;SDS011;40971;44.702;11.030;2022-07-29T04:10:22;20.48;;;9.98;;
55076;SDS011;40971;44.702;11.030;2022-07-29T04:12:49;16.13;;;7.85;;
55076;SDS011;40971;44.702;11.030;2022-07-29T04:15:15;18.00;;;9.52;;
55076;SDS011;40971;44.702;11.030;2022-07-29T04:17:40;17.45;;;7.78;;
55076;SDS011;40971;44.702;11.030;2022-07-29T04:20:06;18.95;;;8.10;;
55076;SDS011;40971;44.702;11.030;2022-07-29T04:22:32;20.20;;;8.57;;
55076;SDS011;40971;44.702;11.030;2022-07-29T04:24:57;18.05;;;8.25;;
55076;SDS011;40971;44.702;11.030;2022-07-29T04:27:23;19.92;;;7.45;;
55076;SDS011;40971;44.702;11.030;2022-07-29T04:29:49;20.13;;;7.20;;
55076;SDS011;40971;44.702;11.030;2022-07-29T04:32:19;19.65;;;7.40;;
55076;SDS011;40971;44.702;11.030;2022-07-29T04:34:45;18.92;;;6.88;;
55076;SDS011;40971;44.702;11.030;2022-07-29T04:37:11;19.42;;;7.15;;
55076;SDS011;40971;44.702;11.030;2022-07-29T04:39:37;15.20;;;6.88;;
55076;SDS011;40971;44.702;11.030;2022-07-29T04:42:03;16.83;;;7.90;;
55076;SDS011;40971;44.702;11.030;2022-07-29T04:44:28;26.00;;;7.55;;
55076;SDS011;40971;44.702;11.030;2022-07-29T04:46:54;16.42;;;7.95;;
55076;SDS011;40971;44.702;11.030;2022-07-29T04:49:20;24.98;;;7.63;;
55076;SDS011;40971;44.702;11.030;2022-07-29T04:51:47;19.08;;;6.82;;
55076;SDS011;40971;44.702;11.030;2022-07-29T04:54:13;19.30;;;7.43;;
55076;SDS011;40971;44.702;11.030;2022-07-29T04:56:38;13.95;;;6.97;;
55076;SDS011;40971;44.702;11.030;2022-07-29T04:59:07;14.05;;;6.57;;
55076;SDS011;40971;44.702;11.030;2022-07-29T05:01:32;15.05;;;6.68;;
55076;SDS011;40971;44.702;11.030;2022-07-29T05:03:58;13.07;;;6.43;;
55076;SDS011;40971;44.702;11.030;2022-07-29T05:06:23;16.98;;;6.55;;
55076;SDS011;40971;44.702;11.030;2022-07-29T05:08:49;29.75;;;6.80;;
55076;SDS011;40971;44.702;11.030;2022-07-29T05:11:14;21.00;;;7.55;;
55076;SDS011;40971;44.702;11.030;2022-07-29T05:13:40;20.05;;;8.02;;
55076;SDS011;40971;44.702;11.030;2022-07-29T05:16:07;14.90;;;7.15;;
55076;SDS011;40971;44.702;11.030;2022-07-29T05:18:33;15.98;;;5.95;;
55076;SDS011;40971;44.702;11.030;2022-07-29T05:20:58;14.48;;;6.70;;
55076;SDS011;40971;44.702;11.030;2022-07-29T05:23:29;14.23;;;6.15;;
55076;SDS011;40971;44.702;11.030;2022-07-29T05:25:54;11.52;;;6.68;;
55076;SDS011;40971;44.702;11.030;2022-07-29T05:28:20;11.75;;;5.35;;
55076;SDS011;40971;44.702;11.030;2022-07-29T05:30:45;13.32;;;5.35;;
55076;SDS011;40971;44.702;11.030;2022-07-29T05:33:11;10.85;;;5.20;;
55076;SDS011;40971;44.702;11.030;2022-07-29T05:35:36;10.82;;;5.55;;
55076;SDS011;40971;44.702;11.030;2022-07-29T05:38:02;15.10;;;5.53;;
55076;SDS011;40971;44.702;11.030;2022-07-29T05:40:28;8.95;;;4.63;;
55076;SDS011;40971;44.702;11.030;2022-07-29T05:42:54;10.23;;;5.78;;
55076;SDS011;40971;44.702;11.030;2022-07-29T05:45:20;10.73;;;5.35;;
55076;SDS011;40971;44.702;11.030;2022-07-29T05:47:45;11.23;;;4.47;;
55076;SDS011;40971;44.702;11.030;2022-07-29T05:50:11;10.43;;;4.70;;
55076;SDS011;40971;44.702;11.030;2022-07-29T05:52:36;17.38;;;4.55;;
55076;SDS011;40971;44.702;11.030;2022-07-29T05:55:02;12.05;;;4.45;;
55076;SDS011;40971;44.702;11.030;2022-07-29T05:57:29;8.50;;;3.97;;
55076;SDS011;40971;44.702;11.030;2022-07-29T05:59:54;10.48;;;3.58;;
55076;SDS011;40971;44.702;11.030;2022-07-29T06:02:20;9.77;;;3.88;;
55076;SDS011;40971;44.702;11.030;2022-07-29T06:04:46;10.98;;;3.55;;
55076;SDS011;40971;44.702;11.030;2022-07-29T06:07:12;8.55;;;3.42;;
55076;SDS011;40971;44.702;11.030;2022-07-29T06:09:37;10.13;;;3.20;;
55076;SDS011;40971;44.702;11.030;2022-07-29T06:12:05;10.73;;;3.65;;
55076;SDS011;40971;44.702;11.030;2022-07-29T06:14:30;15.23;;;4.53;;
55076;SDS011;40971;44.702;11.030;2022-07-29T06:16:57;9.68;;;3.65;;
55076;SDS011;40971;44.702;11.030;2022-07-29T06:19:22;12.00;;;3.90;;
55076;SDS011;40971;44.702;11.030;2022-07-29T06:21:48;9.00;;;3.55;;
55076;SDS011;40971;44.702;11.030;2022-07-29T06:24:15;8.70;;;3.78;;
55076;SDS011;40971;44.702;11.030;2022-07-29T06:26:41;7.72;;;4.10;;
55076;SDS011;40971;44.702;11.030;2022-07-29T06:29:07;9.82;;;4.63;;
55076;SDS011;40971;44.702;11.030;2022-07-29T06:31:32;13.68;;;3.88;;
55076;SDS011;40971;44.702;11.030;2022-07-29T06:33:58;9.73;;;3.80;;
55076;SDS011;40971;44.702;11.030;2022-07-29T06:36:23;9.65;;;4.20;;
55076;SDS011;40971;44.702;11.030;2022-07-29T06:38:49;7.78;;;3.22;;
55076;SDS011;40971;44.702;11.030;2022-07-29T06:41:14;7.80;;;3.45;;
55076;SDS011;40971;44.702;11.030;2022-07-29T06:43:41;10.90;;;2.90;;
55076;SDS011;40971;44.702;11.030;2022-07-29T06:46:10;8.88;;;3.08;;
55076;SDS011;40971;44.702;11.030;2022-07-29T06:48:37;9.13;;;3.22;;
55076;SDS011;40971;44.702;11.030;2022-07-29T06:51:04;9.75;;;2.70;;
55076;SDS011;40971;44.702;11.030;2022-07-29T06:53:30;9.05;;;2.88;;
55076;SDS011;40971;44.702;11.030;2022-07-29T06:55:57;9.38;;;3.00;;
55076;SDS011;40971;44.702;11.030;2022-07-29T06:58:26;9.65;;;2.95;;
55076;SDS011;40971;44.702;11.030;2022-07-29T07:00:52;6.60;;;2.70;;
55076;SDS011;40971;44.702;11.030;2022-07-29T07:03:18;8.77;;;2.75;;
55076;SDS011;40971;44.702;11.030;2022-07-29T07:05:44;14.20;;;2.53;;
55076;SDS011;40971;44.702;11.030;2022-07-29T07:08:10;8.23;;;2.42;;
55076;SDS011;40971;44.702;11.030;2022-07-29T07:10:37;12.85;;;2.55;;
55076;SDS011;40971;44.702;11.030;2022-07-29T07:13:03;7.45;;;2.42;;
55076;SDS011;40971;44.702;11.030;2022-07-29T07:15:29;7.95;;;2.63;;
55076;SDS011;40971;44.702;11.030;2022-07-29T07:17:55;6.25;;;2.58;;
55076;SDS011;40971;44.702;11.030;2022-07-29T07:20:21;9.10;;;2.65;;
55076;SDS011;40971;44.702;11.030;2022-07-29T07:22:46;8.98;;;2.53;;
55076;SDS011;40971;44.702;11.030;2022-07-29T07:25:12;8.77;;;3.30;;
55076;SDS011;40971;44.702;11.030;2022-07-29T07:27:38;7.13;;;3.30;;
55076;SDS011;40971;44.702;11.030;2022-07-29T07:30:04;7.43;;;3.67;;
55076;SDS011;40971;44.702;11.030;2022-07-29T07:32:31;7.18;;;3.25;;
55076;SDS011;40971;44.702;11.030;2022-07-29T07:34:57;7.25;;;3.08;;
55076;SDS011;40971;44.702;11.030;2022-07-29T07:37:23;9.05;;;3.15;;
55076;SDS011;40971;44.702;11.030;2022-07-29T07:39:51;10.40;;;3.58;;
55076;SDS011;40971;44.702;11.030;2022-07-29T07:42:17;7.53;;;3.35;;
55076;SDS011;40971;44.702;11.030;2022-07-29T07:44:42;7.22;;;3.17;;
55076;SDS011;40971;44.702;11.030;2022-07-29T07:47:08;8.63;;;3.38;;
55076;SDS011;40971;44.702;11.030;2022-07-29T07:49:34;9.52;;;3.35;;
55076;SDS011;40971;44.702;11.030;2022-07-29T07:51:59;9.05;;;3.10;;
55076;SDS011;40971;44.702;11.030;2022-07-29T07:54:25;8.52;;;3.70;;
55076;SDS011;40971;44.702;11.030;2022-07-29T07:56:50;6.93;;;3.20;;
55076;SDS011;40971;44.702;11.030;2022-07-29T07:59:17;9.82;;;3.22;;
55076;SDS011;40971;44.702;11.030;2022-07-29T08:01:42;10.35;;;3.10;;
55076;SDS011;40971;44.702;11.030;2022-07-29T08:04:08;6.85;;;3.47;;
55076;SDS011;40971;44.702;11.030;2022-07-29T08:06:34;15.30;;;2.70;;
55076;SDS011;40971;44.702;11.030;2022-07-29T08:09:01;10.15;;;3.53;;
55076;SDS011;40971;44.702;11.030;2022-07-29T08:11:27;10.52;;;3.90;;
55076;SDS011;40971;44.702;11.030;2022-07-29T08:13:52;12.43;;;4.18;;
55076;SDS011;40971;44.702;11.030;2022-07-29T08:16:18;7.15;;;2.95;;
55076;SDS011;40971;44.702;11.030;2022-07-29T08:18:44;7.25;;;3.00;;
55076;SDS011;40971;44.702;11.030;2022-07-29T08:21:11;17.05;;;3.08;;
55076;SDS011;40971;44.702;11.030;2022-07-29T08:23:37;9.73;;;3.03;;
55076;SDS011;40971;44.702;11.030;2022-07-29T08:26:11;12.82;;;3.35;;
55076;SDS011;40971;44.702;11.030;2022-07-29T08:28:38;9.63;;;2.83;;
55076;SDS011;40971;44.702;11.030;2022-07-29T08:31:04;9.00;;;3.58;;
55076;SDS011;40971;44.702;11.030;2022-07-29T08:33:29;7.43;;;2.95;;
55076;SDS011;40971;44.702;11.030;2022-07-29T08:35:55;21.55;;;3.33;;
55076;SDS011;40971;44.702;11.030;2022-07-29T08:38:21;7.97;;;3.58;;
55076;SDS011;40971;44.702;11.030;2022-07-29T08:40:46;9.85;;;3.60;;
55076;SDS011;40971;44.702;11.030;2022-07-29T08:43:12;10.00;;;3.50;;
55076;SDS011;40971;44.702;11.030;2022-07-29T08:45:50;13.63;;;4.20;;
55076;SDS011;40971;44.702;11.030;2022-07-29T08:48:23;9.18;;;3.97;;
55076;SDS011;40971;44.702;11.030;2022-07-29T08:50:52;11.48;;;3.95;;
55076;SDS011;40971;44.702;11.030;2022-07-29T08:53:20;16.35;;;3.80;;
55076;SDS011;40971;44.702;11.030;2022-07-29T08:55:49;9.57;;;3.90;;
55076;SDS011;40971;44.702;11.030;2022-07-29T08:58:15;9.35;;;3.42;;
55076;SDS011;40971;44.702;11.030;2022-07-29T09:00:43;13.70;;;3.72;;
55076;SDS011;40971;44.702;11.030;2022-07-29T09:03:14;10.07;;;2.80;;
55076;SDS011;40971;44.702;11.030;2022-07-29T09:05:43;7.10;;;2.78;;
55076;SDS011;40971;44.702;11.030;2022-07-29T09:08:13;5.97;;;3.08;;
55076;SDS011;40971;44.702;11.030;2022-07-29T09:10:40;9.40;;;3.40;;
55076;SDS011;40971;44.702;11.030;2022-07-29T09:13:06;7.20;;;3.38;;
55076;SDS011;40971;44.702;11.030;2022-07-29T09:15:31;13.48;;;3.42;;
55076;SDS011;40971;44.702;11.030;2022-07-29T09:17:57;9.00;;;3.25;;
55076;SDS011;40971;44.702;11.030;2022-07-29T09:20:24;8.35;;;3.40;;
55076;SDS011;40971;44.702;11.030;2022-07-29T09:22:50;6.50;;;2.53;;
55076;SDS011;40971;44.702;11.030;2022-07-29T09:25:32;6.95;;;2.60;;
55076;SDS011;40971;44.702;11.030;2022-07-29T09:28:08;7.63;;;3.03;;
55076;SDS011;40971;44.702;11.030;2022-07-29T09:30:35;5.88;;;2.70;;
55076;SDS011;40971;44.702;11.030;2022-07-29T09:33:02;7.00;;;2.33;;
55076;SDS011;40971;44.702;11.030;2022-07-29T09:35:28;9.55;;;2.90;;
55076;SDS011;40971;44.702;11.030;2022-07-29T09:37:55;7.50;;;2.65;;
55076;SDS011;40971;44.702;11.030;2022-07-29T09:40:26;9.43;;;3.08;;
55076;SDS011;40971;44.702;11.030;2022-07-29T09:42:53;11.52;;;3.40;;
55076;SDS011;40971;44.702;11.030;2022-07-29T09:45:29;7.00;;;2.55;;
55076;SDS011;40971;44.702;11.030;2022-07-29T09:47:55;7.10;;;2.88;;
55076;SDS011;40971;44.702;11.030;2022-07-29T09:50:34;8.52;;;3.17;;
55076;SDS011;40971;44.702;11.030;2022-07-29T09:53:07;5.40;;;2.17;;
55076;SDS011;40971;44.702;11.030;2022-07-29T09:55:51;6.63;;;2.35;;
55076;SDS011;40971;44.702;11.030;2022-07-29T09:58:18;6.65;;;2.63;;
55076;SDS011;40971;44.702;11.030;2022-07-29T10:00:45;7.80;;;2.58;;
55076;SDS011;40971;44.702;11.030;2022-07-29T10:03:11;6.97;;;2.30;;
55076;SDS011;40971;44.702;11.030;2022-07-29T10:05:38;5.50;;;2.13;;
55076;SDS011;40971;44.702;11.030;2022-07-29T10:08:04;5.40;;;2.13;;
55076;SDS011;40971;44.702;11.030;2022-07-29T10:10:33;6.65;;;2.60;;
55076;SDS011;40971;44.702;11.030;2022-07-29T10:13:02;5.57;;;2.60;;
55076;SDS011;40971;44.702;11.030;2022-07-29T10:15:29;7.93;;;2.72;;
55076;SDS011;40971;44.702;11.030;2022-07-29T10:17:57;5.93;;;2.47;;
55076;SDS011;40971;44.702;11.030;2022-07-29T10:20:24;15.52;;;2.60;;
55076;SDS011;40971;44.702;11.030;2022-07-29T10:22:51;8.57;;;3.17;;
55076;SDS011;40971;44.702;11.030;2022-07-29T10:25:17;8.15;;;2.90;;
55076;SDS011;40971;44.702;11.030;2022-07-29T10:27:44;7.32;;;2.65;;
55076;SDS011;40971;44.702;11.030;2022-07-29T10:30:10;6.38;;;2.42;;
55076;SDS011;40971;44.702;11.030;2022-07-29T10:43:42;8.95;;;2.70;;
55076;SDS011;40971;44.702;11.030;2022-07-29T10:46:09;6.35;;;2.13;;
55076;SDS011;40971;44.702;11.030;2022-07-29T10:49:03;6.53;;;2.17;;
55076;SDS011;40971;44.702;11.030;2022-07-29T10:51:56;8.15;;;2.55;;
55076;SDS011;40971;44.702;11.030;2022-07-29T11:07:35;7.22;;;2.33;;
55076;SDS011;40971;44.702;11.030;2022-07-29T11:15:03;4.90;;;2.10;;
55076;SDS011;40971;44.702;11.030;2022-07-29T11:17:45;12.05;;;2.40;;
55076;SDS011;40971;44.702;11.030;2022-07-29T11:31:40;5.82;;;2.35;;
55076;SDS011;40971;44.702;11.030;2022-07-29T11:34:22;6.28;;;2.40;;
55076;SDS011;40971;44.702;11.030;2022-07-29T11:37:16;6.18;;;2.40;;
55076;SDS011;40971;44.702;11.030;2022-07-29T11:39:43;5.68;;;2.60;;
55076;SDS011;40971;44.702;11.030;2022-07-29T11:47:19;5.82;;;2.50;;
55076;SDS011;40971;44.702;11.030;2022-07-29T11:49:46;10.52;;;2.33;;
55076;SDS011;40971;44.702;11.030;2022-07-29T11:52:12;6.72;;;2.60;;
55076;SDS011;40971;44.702;11.030;2022-07-29T11:54:38;5.53;;;2.13;;
55076;SDS011;40971;44.702;11.030;2022-07-29T11:57:07;5.32;;;2.30;;
55076;SDS011;40971;44.702;11.030;2022-07-29T11:59:38;9.68;;;2.25;;
55076;SDS011;40971;44.702;11.030;2022-07-29T12:02:05;10.10;;;2.88;;
55076;SDS011;40971;44.702;11.030;2022-07-29T12:04:30;6.30;;;2.28;;
55076;SDS011;40971;44.702;11.030;2022-07-29T12:06:55;5.35;;;2.25;;
55076;SDS011;40971;44.702;11.030;2022-07-29T12:09:21;5.57;;;2.42;;
55076;SDS011;40971;44.702;11.030;2022-07-29T12:11:48;4.80;;;2.10;;
55076;SDS011;40971;44.702;11.030;2022-07-29T12:14:31;11.55;;;2.75;;
55076;SDS011;40971;44.702;11.030;2022-07-29T12:16:58;7.15;;;2.55;;
55076;SDS011;40971;44.702;11.030;2022-07-29T12:19:25;6.05;;;2.30;;
55076;SDS011;40971;44.702;11.030;2022-07-29T12:21:51;6.65;;;2.38;;
55076;SDS011;40971;44.702;11.030;2022-07-29T12:24:20;8.95;;;2.42;;
55076;SDS011;40971;44.702;11.030;2022-07-29T12:26:54;5.25;;;2.13;;
55076;SDS011;40971;44.702;11.030;2022-07-29T12:29:22;5.63;;;2.00;;
55076;SDS011;40971;44.702;11.030;2022-07-29T12:31:51;5.32;;;2.30;;
55076;SDS011;40971;44.702;11.030;2022-07-29T12:34:19;5.10;;;2.20;;
55076;SDS011;40971;44.702;11.030;2022-07-29T12:36:45;8.20;;;2.30;;
55076;SDS011;40971;44.702;11.030;2022-07-29T12:39:11;6.63;;;2.47;;
55076;SDS011;40971;44.702;11.030;2022-07-29T12:41:37;7.07;;;2.50;;
55076;SDS011;40971;44.702;11.030;2022-07-29T12:44:03;5.70;;;1.90;;
55076;SDS011;40971;44.702;11.030;2022-07-29T12:46:29;10.23;;;2.10;;
55076;SDS011;40971;44.702;11.030;2022-07-29T12:48:55;5.60;;;2.30;;
55076;SDS011;40971;44.702;11.030;2022-07-29T12:51:54;7.22;;;2.20;;
55076;SDS011;40971;44.702;11.030;2022-07-29T12:54:13;7.43;;;2.28;;
55076;SDS011;40971;44.702;11.030;2022-07-29T12:56:40;5.60;;;2.20;;
55076;SDS011;40971;44.702;11.030;2022-07-29T12:59:20;6.10;;;2.17;;
55076;SDS011;40971;44.702;11.030;2022-07-29T13:01:47;7.40;;;2.58;;
55076;SDS011;40971;44.702;11.030;2022-07-29T13:04:27;10.18;;;2.20;;
55076;SDS011;40971;44.702;11.030;2022-07-29T13:07:01;4.95;;;2.10;;
55076;SDS011;40971;44.702;11.030;2022-07-29T13:12:08;6.32;;;2.20;;
55076;SDS011;40971;44.702;11.030;2022-07-29T13:14:36;7.75;;;2.00;;
55076;SDS011;40971;44.702;11.030;2022-07-29T13:22:20;5.68;;;2.40;;
55076;SDS011;40971;44.702;11.030;2022-07-29T13:24:48;6.40;;;2.78;;
55076;SDS011;40971;44.702;11.030;2022-07-29T13:27:21;11.15;;;2.40;;
55076;SDS011;40971;44.702;11.030;2022-07-29T13:29:52;8.60;;;2.30;;
55076;SDS011;40971;44.702;11.030;2022-07-29T13:32:21;8.48;;;2.38;;
55076;SDS011;40971;44.702;11.030;2022-07-29T13:34:47;9.57;;;2.85;;
55076;SDS011;40971;44.702;11.030;2022-07-29T13:37:13;5.18;;;2.40;;
55076;SDS011;40971;44.702;11.030;2022-07-29T13:39:38;6.63;;;2.17;;
55076;SDS011;40971;44.702;11.030;2022-07-29T13:42:04;6.13;;;2.47;;
55076;SDS011;40971;44.702;11.030;2022-07-29T13:44:31;6.22;;;2.22;;
55076;SDS011;40971;44.702;11.030;2022-07-29T13:46:57;8.02;;;2.13;;
55076;SDS011;40971;44.702;11.030;2022-07-29T13:49:24;6.40;;;2.13;;
55076;SDS011;40971;44.702;11.030;2022-07-29T13:51:49;5.53;;;2.08;;
55076;SDS011;40971;44.702;11.030;2022-07-29T13:54:15;5.95;;;2.10;;
55076;SDS011;40971;44.702;11.030;2022-07-29T13:56:41;7.50;;;2.08;;
55076;SDS011;40971;44.702;11.030;2022-07-29T13:59:06;9.93;;;2.10;;
55076;SDS011;40971;44.702;11.030;2022-07-29T14:01:33;5.63;;;2.20;;
55076;SDS011;40971;44.702;11.030;2022-07-29T14:03:59;6.43;;;1.95;;
55076;SDS011;40971;44.702;11.030;2022-07-29T14:06:24;5.60;;;2.60;;
55076;SDS011;40971;44.702;11.030;2022-07-29T14:08:50;7.18;;;2.03;;
55076;SDS011;40971;44.702;11.030;2022-07-29T14:11:15;7.38;;;2.20;;
55076;SDS011;40971;44.702;11.030;2022-07-29T14:13:41;9.40;;;2.40;;
55076;SDS011;40971;44.702;11.030;2022-07-29T14:16:06;6.88;;;2.20;;
55076;SDS011;40971;44.702;11.030;2022-07-29T14:18:32;8.98;;;2.05;;
55076;SDS011;40971;44.702;11.030;2022-07-29T14:20:58;6.82;;;2.10;;
55076;SDS011;40971;44.702;11.030;2022-07-29T14:23:24;8.40;;;2.13;;
55076;SDS011;40971;44.702;11.030;2022-07-29T14:25:49;8.60;;;2.25;;
55076;SDS011;40971;44.702;11.030;2022-07-29T14:28:14;9.10;;;2.00;;
55076;SDS011;40971;44.702;11.030;2022-07-29T14:30:40;10.13;;;2.28;;
55076;SDS011;40971;44.702;11.030;2022-07-29T14:33:06;7.07;;;2.33;;
55076;SDS011;40971;44.702;11.030;2022-07-29T14:35:31;5.57;;;2.17;;
55076;SDS011;40971;44.702;11.030;2022-07-29T14:37:57;5.70;;;2.40;;
55076;SDS011;40971;44.702;11.030;2022-07-29T14:40:22;7.00;;;1.98;;
55076;SDS011;40971;44.702;11.030;2022-07-29T14:42:47;8.57;;;2.60;;
55076;SDS011;40971;44.702;11.030;2022-07-29T14:45:13;8.23;;;2.65;;
55076;SDS011;40971;44.702;11.030;2022-07-29T14:47:39;9.43;;;2.50;;
55076;SDS011;40971;44.702;11.030;2022-07-29T14:50:05;8.68;;;2.60;;
55076;SDS011;40971;44.702;11.030;2022-07-29T14:52:31;6.50;;;2.45;;
55076;SDS011;40971;44.702;11.030;2022-07-29T14:54:57;10.02;;;2.60;;
55076;SDS011;40971;44.702;11.030;2022-07-29T14:57:23;7.55;;;2.50;;
55076;SDS011;40971;44.702;11.030;2022-07-29T14:59:50;10.75;;;2.50;;
55076;SDS011;40971;44.702;11.030;2022-07-29T15:02:15;8.30;;;2.33;;
55076;SDS011;40971;44.702;11.030;2022-07-29T15:04:41;7.55;;;2.72;;
55076;SDS011;40971;44.702;11.030;2022-07-29T15:07:06;8.00;;;2.33;;
55076;SDS011;40971;44.702;11.030;2022-07-29T15:09:32;11.95;;;2.42;;
55076;SDS011;40971;44.702;11.030;2022-07-29T15:11:57;9.07;;;3.20;;
55076;SDS011;40971;44.702;11.030;2022-07-29T15:14:23;7.47;;;2.47;;
55076;SDS011;40971;44.702;11.030;2022-07-29T15:16:48;14.88;;;2.63;;
55076;SDS011;40971;44.702;11.030;2022-07-29T15:19:14;9.55;;;2.72;;
55076;SDS011;40971;44.702;11.030;2022-07-29T15:21:39;18.90;;;3.90;;
55076;SDS011;40971;44.702;11.030;2022-07-29T15:24:05;13.38;;;3.63;;
55076;SDS011;40971;44.702;11.030;2022-07-29T15:26:32;12.00;;;4.15;;
55076;SDS011;40971;44.702;11.030;2022-07-29T15:28:57;12.77;;;4.20;;
55076;SDS011;40971;44.702;11.030;2022-07-29T15:31:25;8.65;;;3.85;;
55076;SDS011;40971;44.702;11.030;2022-07-29T15:33:50;9.63;;;4.03;;
55076;SDS011;40971;44.702;11.030;2022-07-29T15:36:16;15.50;;;4.72;;
55076;SDS011;40971;44.702;11.030;2022-07-29T15:38:41;11.57;;;4.50;;
55076;SDS011;40971;44.702;11.030;2022-07-29T15:41:09;14.30;;;5.38;;